Time;durP1;ratioP1;P1;durP2;ratioP2;P2;SDS_P1;SDS_P2;PMS_P1;PMS_P2;Temp;Humidity;BMP_temperature;BMP_pressure;BME280_temperature;BME280_humidity;BME280_pressure;Samples;Min_cycle;Max_cycle;Signal;HPM_P1;HPM_P2
2021/12/28 00:01:30;;;;;;;8.43;2.22;;;9.30;98.00;;;;;;5120677;28;20259;-80
2021/12/28 00:03:58;;;;;;;5.72;2.75;;;9.40;98.40;;;;;;5122767;28;20228;-79
2021/12/28 00:06:26;;;;;;;8.02;2.65;;;9.40;97.80;;;;;;5124035;28;20213;-80
2021/12/28 00:08:52;;;;;;;6.10;2.35;;;9.50;96.90;;;;;;5129913;28;20235;-78
2021/12/28 00:11:19;;;;;;;6.90;2.10;;;9.40;96.20;;;;;;5122933;28;20227;-77
2021/12/28 00:13:46;;;;;;;8.32;2.10;;;9.40;95.50;;;;;;5118347;28;20647;-78
2021/12/28 00:16:31;;;;;;;9.70;2.75;;;9.30;95.50;;;;;;5117246;28;20204;-78
2021/12/28 00:19:01;;;;;;;10.05;3.00;;;9.30;95.60;;;;;;5117058;28;20231;-77
2021/12/28 00:21:28;;;;;;;10.63;2.45;;;9.10;95.50;;;;;;5116083;27;20224;-78
2021/12/28 00:23:55;;;;;;;7.35;2.83;;;9.00;95.80;;;;;;5115890;28;20287;-76
2021/12/28 00:26:23;;;;;;;7.90;2.22;;;8.90;96.60;;;;;;5115798;28;20299;-78
2021/12/28 00:28:51;;;;;;;8.82;3.00;;;8.80;96.60;;;;;;5115293;28;20223;-77
2021/12/28 00:31:18;;;;;;;8.20;3.05;;;8.70;97.30;;;;;;5115469;28;20216;-77
2021/12/28 00:33:45;;;;;;;7.93;1.90;;;8.60;97.80;;;;;;5118116;28;20541;-78
2021/12/28 00:36:14;;;;;;;8.57;2.47;;;8.60;98.70;;;;;;5126162;28;20683;-78
2021/12/28 00:38:41;;;;;;;10.63;3.60;;;8.40;99.40;;;;;;5117808;28;20314;-78
2021/12/28 00:41:08;;;;;;;7.85;3.95;;;8.40;99.90;;;;;;5122596;28;20215;-78
2021/12/28 00:43:35;;;;;;;7.95;3.70;;;8.20;99.90;;;;;;5126715;28;20699;-78
2021/12/28 00:46:02;;;;;;;7.45;3.20;;;8.10;99.90;;;;;;5121417;28;20261;-77
2021/12/28 00:48:29;;;;;;;8.85;2.78;;;8.10;99.90;;;;;;5118213;28;20299;-77
2021/12/28 00:50:57;;;;;;;16.13;5.90;;;8.00;99.90;;;;;;5117191;28;20496;-77
2021/12/28 00:53:26;;;;;;;19.55;6.97;;;8.00;99.90;;;;;;5118744;28;20268;-79
2021/12/28 00:55:53;;;;;;;12.82;4.90;;;7.90;99.90;;;;;;5120819;27;20201;-79
2021/12/28 00:58:21;;;;;;;10.10;4.20;;;7.90;99.90;;;;;;5120248;28;20228;-79
2021/12/28 01:00:48;;;;;;;9.50;4.30;;;7.90;99.90;;;;;;5119659;28;20232;-80
2021/12/28 01:03:16;;;;;;;10.98;4.30;;;7.80;99.90;;;;;;5119841;28;20287;-79
2021/12/28 01:05:44;;;;;;;12.00;4.50;;;7.90;99.90;;;;;;5120194;28;20228;-78
2021/12/28 01:08:11;;;;;;;6.22;3.03;;;7.80;99.90;;;;;;5116191;28;20295;-78
2021/12/28 01:10:43;;;;;;;12.20;3.63;;;7.80;99.90;;;;;;5116369;28;20196;-79
2021/12/28 01:13:10;;;;;;;10.75;3.25;;;7.80;99.90;;;;;;5126124;28;20228;-79
2021/12/28 01:15:38;;;;;;;10.73;4.22;;;7.80;99.90;;;;;;5136818;28;20268;-79
2021/12/28 01:18:05;;;;;;;7.93;3.60;;;7.80;99.90;;;;;;5136279;28;20264;-80
2021/12/28 01:20:32;;;;;;;8.00;3.13;;;7.80;99.90;;;;;;5131521;28;20200;-79
2021/12/28 01:22:58;;;;;;;9.80;2.80;;;7.80;99.90;;;;;;5136467;28;20267;-80
2021/12/28 01:25:26;;;;;;;11.40;2.80;;;7.80;99.90;;;;;;5135320;28;20255;-79
2021/12/28 01:27:55;;;;;;;11.45;2.92;;;7.70;99.90;;;;;;5135529;28;20204;-79
2021/12/28 01:30:24;;;;;;;7.10;2.35;;;7.70;99.90;;;;;;5135403;28;20247;-79
2021/12/28 01:32:51;;;;;;;4.55;2.60;;;7.70;99.90;;;;;;5125248;28;20595;-78
2021/12/28 01:35:20;;;;;;;8.88;4.05;;;7.70;99.90;;;;;;5115405;28;20201;-79
2021/12/28 01:37:48;;;;;;;7.38;3.13;;;7.60;99.90;;;;;;5115962;28;20225;-79
2021/12/28 01:40:19;;;;;;;8.15;2.65;;;7.60;99.90;;;;;;5124003;28;20200;-78
2021/12/28 01:43:04;;;;;;;11.73;2.75;;;7.60;99.90;;;;;;5134111;28;20240;-78
2021/12/28 01:45:37;;;;;;;5.53;2.70;;;7.50;99.90;;;;;;5134449;28;20242;-78
2021/12/28 01:48:05;;;;;;;7.03;2.90;;;7.40;99.90;;;;;;5134441;28;20200;-77
2021/12/28 01:50:32;;;;;;;11.93;3.00;;;7.40;99.90;;;;;;5133856;28;20219;-79
2021/12/28 01:52:59;;;;;;;7.05;3.00;;;7.40;99.90;;;;;;5133932;28;20263;-78
2021/12/28 01:55:26;;;;;;;7.60;3.35;;;7.40;99.90;;;;;;5132638;28;20235;-79
2021/12/28 01:57:53;;;;;;;9.23;3.25;;;7.30;99.90;;;;;;5117250;28;20356;-78
2021/12/28 02:00:23;;;;;;;5.55;2.55;;;7.40;99.90;;;;;;5130784;28;20224;-79
2021/12/28 02:02:49;;;;;;;6.78;2.70;;;7.30;99.90;;;;;;5129338;28;20255;-76
2021/12/28 02:05:16;;;;;;;8.90;3.08;;;7.30;99.90;;;;;;5114754;28;20259;-78
2021/12/28 02:07:43;;;;;;;9.70;2.90;;;7.30;99.90;;;;;;5114809;28;20363;-78
2021/12/28 02:10:11;;;;;;;11.98;3.92;;;7.30;99.90;;;;;;5114809;28;20207;-77
2021/12/28 02:12:38;;;;;;;8.63;3.70;;;7.20;99.90;;;;;;5114471;28;20224;-78
2021/12/28 02:15:12;;;;;;;6.40;2.95;;;7.30;99.90;;;;;;5114681;28;20227;-79
2021/12/28 02:17:41;;;;;;;9.60;3.10;;;7.30;99.90;;;;;;5114791;28;20654;-78
2021/12/28 02:20:12;;;;;;;8.27;2.75;;;7.30;99.90;;;;;;5115477;28;20287;-77
2021/12/28 02:22:39;;;;;;;9.38;4.03;;;7.20;99.90;;;;;;5116121;28;20232;-76
2021/12/28 02:25:08;;;;;;;11.07;3.08;;;7.30;99.90;;;;;;5115955;28;20312;-79
2021/12/28 02:27:35;;;;;;;6.53;2.85;;;7.30;99.90;;;;;;5114809;28;20226;-78
2021/12/28 02:30:02;;;;;;;12.45;2.72;;;7.30;99.90;;;;;;5115063;28;20209;-79
2021/12/28 02:32:30;;;;;;;6.07;2.55;;;7.40;99.90;;;;;;5115285;28;20575;-76
2021/12/28 02:34:58;;;;;;;9.93;3.50;;;7.30;99.90;;;;;;5116630;28;20683;-77
2021/12/28 02:37:27;;;;;;;8.98;2.35;;;7.20;99.90;;;;;;5120836;28;20219;-79
2021/12/28 02:39:54;;;;;;;6.18;2.42;;;7.20;99.90;;;;;;5122976;28;20215;-78
2021/12/28 02:42:23;;;;;;;11.00;2.83;;;7.20;99.90;;;;;;5124407;28;20228;-78
2021/12/28 02:44:58;;;;;;;8.23;2.75;;;7.10;99.90;;;;;;5125496;28;20305;-78
2021/12/28 02:47:25;;;;;;;6.32;2.85;;;7.10;99.90;;;;;;5113157;28;20306;-77
2021/12/28 02:49:52;;;;;;;11.63;2.25;;;7.10;99.90;;;;;;5114053;28;20303;-79
2021/12/28 02:52:19;;;;;;;4.93;2.70;;;7.10;99.90;;;;;;5129720;23;20296;-80
2021/12/28 02:54:48;;;;;;;8.82;2.97;;;7.10;99.90;;;;;;5094197;28;20198;-79
2021/12/28 02:57:15;;;;;;;9.90;2.58;;;7.10;99.90;;;;;;5082197;28;20211;-81
2021/12/28 02:59:50;;;;;;;8.98;2.72;;;7.10;99.90;;;;;;5079285;28;20273;-80
2021/12/28 03:02:17;;;;;;;7.95;2.65;;;7.10;99.90;;;;;;5097548;28;20234;-82
2021/12/28 03:04:44;;;;;;;9.00;2.38;;;7.20;99.90;;;;;;5119914;28;20216;-84
2021/12/28 03:07:11;;;;;;;7.70;2.65;;;7.20;99.90;;;;;;5120700;28;20220;-84
2021/12/28 03:09:39;;;;;;;8.05;2.90;;;7.20;99.90;;;;;;5103213;28;20212;-80
2021/12/28 03:12:09;;;;;;;9.20;2.88;;;7.30;99.90;;;;;;5100494;28;20593;-80
2021/12/28 03:14:36;;;;;;;7.47;2.42;;;7.20;99.90;;;;;;5102223;28;20204;-80
2021/12/28 03:17:04;;;;;;;5.85;2.65;;;7.20;99.90;;;;;;5099301;28;20224;-80
2021/12/28 03:19:31;;;;;;;7.78;3.45;;;7.20;99.90;;;;;;5098848;28;20304;-82
2021/12/28 03:21:59;;;;;;;4.53;2.50;;;7.20;99.90;;;;;;5102573;28;20270;-81
2021/12/28 03:24:26;;;;;;;9.82;2.90;;;7.30;99.90;;;;;;5109002;28;20288;-81
2021/12/28 03:26:53;;;;;;;6.65;3.13;;;7.10;99.90;;;;;;5099672;28;20276;-80
2021/12/28 03:29:23;;;;;;;5.80;2.42;;;7.10;99.90;;;;;;5101120;28;20213;-79
2021/12/28 03:31:50;;;;;;;5.22;2.20;;;7.10;99.90;;;;;;5104709;28;20709;-80
2021/12/28 03:34:17;;;;;;;7.40;2.92;;;7.20;99.90;;;;;;5098411;28;20234;-79
2021/12/28 03:36:44;;;;;;;5.55;2.25;;;7.30;99.90;;;;;;5098117;28;20218;-80
2021/12/28 03:39:12;;;;;;;6.65;2.35;;;7.40;99.90;;;;;;5097902;28;20215;-79
2021/12/28 03:41:39;;;;;;;8.63;2.90;;;7.50;99.90;;;;;;5097903;28;20241;-79
2021/12/28 03:44:06;;;;;;;8.65;2.85;;;7.50;99.90;;;;;;5097739;28;20213;-79
2021/12/28 03:46:35;;;;;;;7.72;2.45;;;7.50;99.90;;;;;;5097343;28;20323;-80
2021/12/28 03:49:02;;;;;;;8.20;2.30;;;7.60;99.90;;;;;;5097466;28;20215;-80
2021/12/28 03:51:29;;;;;;;6.30;2.50;;;7.60;99.90;;;;;;5101645;28;20213;-80
2021/12/28 03:53:56;;;;;;;5.35;2.33;;;7.60;99.90;;;;;;5104687;28;20569;-80
2021/12/28 03:56:23;;;;;;;10.10;2.58;;;7.60;99.90;;;;;;5108065;28;20312;-80
2021/12/28 03:58:51;;;;;;;9.55;2.80;;;7.60;99.90;;;;;;5111466;28;20239;-79
2021/12/28 04:01:21;;;;;;;5.38;2.65;;;7.60;99.90;;;;;;5110626;28;20259;-81
2021/12/28 04:03:50;;;;;;;4.65;2.78;;;7.60;99.90;;;;;;5109780;28;20217;-80
2021/12/28 04:06:19;;;;;;;8.18;2.70;;;7.50;99.90;;;;;;5111304;28;20271;-80
2021/12/28 04:08:47;;;;;;;4.43;2.80;;;7.50;99.90;;;;;;5104782;28;20213;-80
2021/12/28 04:11:16;;;;;;;6.05;3.03;;;7.50;99.90;;;;;;5099213;28;20205;-78
2021/12/28 04:13:44;;;;;;;8.10;2.63;;;7.50;99.90;;;;;;5098591;28;20213;-80
2021/12/28 04:16:12;;;;;;;6.80;2.53;;;7.60;99.90;;;;;;5099268;28;20654;-80
2021/12/28 04:18:39;;;;;;;7.30;2.75;;;7.50;99.90;;;;;;5105108;28;20205;-80
2021/12/28 04:21:07;;;;;;;6.40;2.55;;;7.60;99.90;;;;;;5100842;28;20288;-80
2021/12/28 04:23:34;;;;;;;4.20;2.13;;;7.70;99.90;;;;;;5117128;28;20212;-80
2021/12/28 04:26:02;;;;;;;4.10;2.40;;;7.70;99.90;;;;;;5109732;28;20240;-78
2021/12/28 04:28:28;;;;;;;6.28;2.38;;;7.70;99.90;;;;;;5115992;28;20229;-79
2021/12/28 04:30:55;;;;;;;4.75;2.40;;;7.70;99.90;;;;;;5107920;28;20300;-79
2021/12/28 04:33:23;;;;;;;9.38;2.13;;;7.80;99.90;;;;;;5098790;28;20217;-78
2021/12/28 04:35:50;;;;;;;5.55;2.55;;;7.80;99.90;;;;;;5096776;28;20217;-79
2021/12/28 04:38:20;;;;;;;4.22;2.03;;;7.90;99.90;;;;;;5096215;28;20213;-78
2021/12/28 04:40:47;;;;;;;8.30;2.63;;;8.00;99.90;;;;;;5106427;28;20204;-80
2021/12/28 04:43:15;;;;;;;5.47;3.35;;;8.00;99.90;;;;;;5109754;28;20221;-78
2021/12/28 04:45:42;;;;;;;8.88;2.60;;;8.00;99.90;;;;;;5098473;28;20247;-78
2021/12/28 04:48:09;;;;;;;6.13;2.85;;;8.00;99.90;;;;;;5098835;28;20223;-78
2021/12/28 04:50:40;;;;;;;5.43;2.45;;;8.00;99.90;;;;;;5099370;28;20213;-78
2021/12/28 04:53:10;;;;;;;6.40;2.70;;;8.00;99.90;;;;;;5104917;28;20713;-78
2021/12/28 04:55:39;;;;;;;4.60;2.63;;;8.00;99.90;;;;;;5108117;28;20205;-78
2021/12/28 04:58:06;;;;;;;4.25;2.20;;;7.90;99.90;;;;;;5101149;28;20204;-79
2021/12/28 05:00:33;;;;;;;7.35;2.70;;;7.90;99.90;;;;;;5097726;28;20216;-80
2021/12/28 05:03:00;;;;;;;9.23;2.53;;;7.90;99.90;;;;;;5097604;28;20229;-79
2021/12/28 05:05:27;;;;;;;11.10;2.10;;;8.00;99.90;;;;;;5097829;28;20225;-78
2021/12/28 05:07:54;;;;;;;4.40;1.95;;;8.00;99.90;;;;;;5099210;28;20212;-78
2021/12/28 05:10:22;;;;;;;4.05;1.77;;;8.10;99.90;;;;;;5098428;28;20217;-79
2021/12/28 05:12:50;;;;;;;7.25;1.30;;;8.20;99.90;;;;;;5110889;28;20209;-77
2021/12/28 05:15:18;;;;;;;9.05;1.40;;;8.40;99.90;;;;;;5117483;28;20281;-77
2021/12/28 05:17:47;;;;;;;3.60;1.00;;;8.40;99.90;;;;;;5117085;28;20236;-78
2021/12/28 05:20:14;;;;;;;4.53;0.95;;;8.50;99.90;;;;;;5110509;28;20209;-78
2021/12/28 05:22:41;;;;;;;6.80;1.40;;;8.50;99.90;;;;;;5104461;28;20221;-78
2021/12/28 05:25:09;;;;;;;5.03;1.75;;;8.60;99.90;;;;;;5101912;28;20300;-77
2021/12/28 05:27:36;;;;;;;3.95;1.20;;;8.60;99.90;;;;;;5099738;28;20228;-78
2021/12/28 05:30:08;;;;;;;3.95;1.20;;;8.60;99.90;;;;;;5099452;28;20667;-78
2021/12/28 05:32:35;;;;;;;2.13;0.80;;;8.60;99.90;;;;;;5096554;28;20229;-78
2021/12/28 05:35:02;;;;;;;3.00;1.10;;;8.70;99.90;;;;;;5098944;28;20228;-78
2021/12/28 05:37:29;;;;;;;2.65;0.90;;;8.70;99.90;;;;;;5095372;28;20197;-78
2021/12/28 05:39:56;;;;;;;1.02;0.70;;;8.70;99.90;;;;;;5093613;28;20542;-78
2021/12/28 05:42:24;;;;;;;2.88;1.00;;;8.70;99.90;;;;;;5094709;28;20702;-78
2021/12/28 05:44:50;;;;;;;1.85;0.80;;;8.70;99.90;;;;;;5094342;28;20211;-79
2021/12/28 05:47:19;;;;;;;2.60;0.73;;;8.70;99.90;;;;;;5101728;28;20207;-78
2021/12/28 05:49:46;;;;;;;3.88;1.38;;;8.70;99.90;;;;;;5107763;28;20231;-79
2021/12/28 05:52:13;;;;;;;1.75;1.20;;;8.70;99.90;;;;;;5103277;28;20769;-78
2021/12/28 05:54:40;;;;;;;2.92;1.10;;;8.70;99.90;;;;;;5103119;28;20231;-79
2021/12/28 05:57:07;;;;;;;1.15;1.05;;;8.70;99.90;;;;;;5103002;28;20226;-79
2021/12/28 05:59:35;;;;;;;1.58;0.93;;;8.80;99.90;;;;;;5101670;28;20670;-80
2021/12/28 06:02:01;;;;;;;2.22;1.17;;;8.80;99.90;;;;;;5099940;28;20251;-79
2021/12/28 06:04:30;;;;;;;2.28;0.68;;;8.90;99.90;;;;;;5094417;28;20291;-79
2021/12/28 06:06:56;;;;;;;2.50;0.60;;;8.90;99.90;;;;;;5095130;28;20252;-78
2021/12/28 06:09:23;;;;;;;2.10;0.98;;;8.80;99.90;;;;;;5094265;28;20272;-79
2021/12/28 06:11:50;;;;;;;3.38;1.08;;;8.80;99.90;;;;;;5093934;28;20721;-79
2021/12/28 06:14:19;;;;;;;1.02;0.80;;;8.80;99.90;;;;;;5093802;28;20656;-78
2021/12/28 06:16:46;;;;;;;2.20;1.17;;;8.80;99.90;;;;;;5096124;28;20210;-81
2021/12/28 06:19:13;;;;;;;4.07;0.80;;;8.80;99.90;;;;;;5104993;28;20300;-79
2021/12/28 06:21:41;;;;;;;2.35;1.42;;;8.80;99.90;;;;;;5099708;28;20205;-80
2021/12/28 06:24:08;;;;;;;2.30;0.95;;;8.80;99.90;;;;;;5100882;28;20209;-78
2021/12/28 06:26:36;;;;;;;1.25;0.80;;;8.90;99.90;;;;;;5100165;28;20296;-80
2021/12/28 06:29:06;;;;;;;1.08;0.63;;;8.90;99.90;;;;;;5103236;28;20205;-80
2021/12/28 06:31:33;;;;;;;2.28;1.17;;;8.90;99.90;;;;;;5111183;28;20226;-79
2021/12/28 06:34:02;;;;;;;1.15;0.95;;;8.90;99.90;;;;;;5102533;28;20227;-80
2021/12/28 06:36:30;;;;;;;2.25;0.88;;;8.90;99.90;;;;;;5098174;28;20229;-79
2021/12/28 06:38:58;;;;;;;3.22;1.55;;;8.90;99.90;;;;;;5099652;28;20622;-78
2021/12/28 06:41:26;;;;;;;1.85;1.35;;;8.90;99.90;;;;;;5108501;28;20240;-78
2021/12/28 06:43:53;;;;;;;1.38;0.88;;;8.80;99.90;;;;;;5114419;28;20196;-81
2021/12/28 06:46:20;;;;;;;1.83;1.05;;;8.80;99.90;;;;;;5108591;28;20274;-77
2021/12/28 06:48:47;;;;;;;1.60;1.38;;;8.80;99.90;;;;;;5115929;28;20193;-78
2021/12/28 06:51:14;;;;;;;2.05;0.93;;;8.90;99.90;;;;;;5106816;28;20201;-80
2021/12/28 06:53:42;;;;;;;2.33;0.75;;;8.90;99.90;;;;;;5107258;28;20323;-80
2021/12/28 06:56:10;;;;;;;1.95;0.60;;;9.00;99.90;;;;;;5101454;28;20646;-79
2021/12/28 06:58:38;;;;;;;2.10;0.77;;;9.00;99.90;;;;;;5101937;28;20216;-79
2021/12/28 07:01:05;;;;;;;1.95;0.75;;;9.00;99.90;;;;;;5103283;28;20229;-78
2021/12/28 07:03:32;;;;;;;1.90;0.90;;;9.10;99.90;;;;;;5108572;28;20241;-81
2021/12/28 07:05:59;;;;;;;1.23;0.70;;;9.10;99.90;;;;;;5100701;28;20316;-80
2021/12/28 07:08:27;;;;;;;0.70;0.60;;;9.20;99.90;;;;;;5101232;28;20223;-78
2021/12/28 07:10:53;;;;;;;0.95;0.60;;;9.20;99.90;;;;;;5101432;28;20201;-79
2021/12/28 07:13:22;;;;;;;2.70;0.70;;;9.30;99.90;;;;;;5096470;28;20686;-78
2021/12/28 07:15:49;;;;;;;0.70;0.70;;;9.30;99.90;;;;;;5092521;28;20196;-78
2021/12/28 07:18:15;;;;;;;0.40;0.40;;;9.40;99.90;;;;;;5093605;28;20304;-80
2021/12/28 07:20:42;;;;;;;1.55;0.50;;;9.50;99.90;;;;;;5093849;28;20299;-80
2021/12/28 07:23:09;;;;;;;1.65;0.50;;;9.60;99.20;;;;;;5094028;28;20720;-80
2021/12/28 07:25:36;;;;;;;0.70;0.50;;;9.70;97.00;;;;;;5094638;28;20312;-79
2021/12/28 07:28:05;;;;;;;0.38;0.38;;;9.70;96.10;;;;;;5095487;28;20448;-78
2021/12/28 07:30:33;;;;;;;0.93;0.40;;;9.80;95.30;;;;;;5101930;28;20213;-80
2021/12/28 07:33:00;;;;;;;0.40;0.40;;;9.80;95.20;;;;;;5107380;28;20232;-78
2021/12/28 07:35:27;;;;;;;0.40;0.40;;;9.80;95.50;;;;;;5095923;28;20208;-79
2021/12/28 07:37:54;;;;;;;0.30;0.30;;;9.80;95.80;;;;;;5093121;28;20201;-79
2021/12/28 07:40:21;;;;;;;0.30;0.30;;;9.80;95.60;;;;;;5094754;28;20211;-78
2021/12/28 07:42:48;;;;;;;0.70;0.40;;;9.90;95.90;;;;;;5095683;28;20239;-79
2021/12/28 07:45:16;;;;;;;0.40;0.40;;;9.90;96.80;;;;;;5097635;28;20241;-79
2021/12/28 07:47:44;;;;;;;3.10;0.80;;;9.90;97.20;;;;;;5097155;28;20225;-79
2021/12/28 07:50:14;;;;;;;1.08;0.50;;;9.80;97.70;;;;;;5101231;28;20232;-78
2021/12/28 07:52:42;;;;;;;0.30;0.30;;;9.90;97.70;;;;;;5102932;28;20233;-79
2021/12/28 07:55:10;;;;;;;0.60;0.38;;;9.90;98.00;;;;;;5103098;28;20565;-80
2021/12/28 07:57:38;;;;;;;0.73;0.40;;;9.90;98.80;;;;;;5102928;28;20209;-80
2021/12/28 08:00:07;;;;;;;0.68;0.52;;;9.90;99.40;;;;;;5102475;28;20213;-80
2021/12/28 08:02:34;;;;;;;0.35;0.35;;;9.90;99.90;;;;;;5102029;28;20301;-79
2021/12/28 08:05:03;;;;;;;0.35;0.35;;;9.90;99.90;;;;;;5105436;28;20234;-79
2021/12/28 08:07:30;;;;;;;1.50;1.20;;;9.80;99.90;;;;;;5112936;28;20236;-79
2021/12/28 08:09:57;;;;;;;0.40;0.30;;;9.80;99.90;;;;;;5111819;28;20258;-80
2021/12/28 08:12:24;;;;;;;0.40;0.40;;;9.90;99.90;;;;;;5111461;28;20229;-79
2021/12/28 08:14:51;;;;;;;0.40;0.38;;;9.90;99.90;;;;;;5115954;28;20216;-78
2021/12/28 08:17:18;;;;;;;0.68;0.38;;;9.80;99.90;;;;;;5113439;28;20201;-79
2021/12/28 08:19:45;;;;;;;0.40;0.40;;;9.90;99.90;;;;;;5111636;28;20205;-78
2021/12/28 08:22:13;;;;;;;1.17;1.08;;;9.90;99.90;;;;;;5111106;28;20289;-80
2021/12/28 08:24:40;;;;;;;1.08;0.80;;;10.00;99.90;;;;;;5106548;28;20291;-79
2021/12/28 08:27:07;;;;;;;1.05;0.95;;;10.10;99.90;;;;;;5102224;28;20271;-78
2021/12/28 08:29:34;;;;;;;1.10;1.00;;;10.20;99.90;;;;;;5102179;28;20236;-81
2021/12/28 08:32:01;;;;;;;3.47;1.55;;;10.20;99.10;;;;;;5101484;28;20589;-80
2021/12/28 08:34:28;;;;;;;1.35;0.90;;;10.30;98.50;;;;;;5101805;28;20257;-80
2021/12/28 08:36:55;;;;;;;0.73;0.60;;;10.40;97.80;;;;;;5102233;28;20235;-80
2021/12/28 08:39:23;;;;;;;0.40;0.40;;;10.50;96.90;;;;;;5103116;28;20304;-79
2021/12/28 08:41:50;;;;;;;0.50;0.40;;;10.60;95.60;;;;;;5114899;28;20217;-79
2021/12/28 08:44:17;;;;;;;0.75;0.50;;;10.70;95.20;;;;;;5117067;28;20293;-81
2021/12/28 08:46:45;;;;;;;0.60;0.55;;;10.70;95.20;;;;;;5115640;28;20231;-81
2021/12/28 08:49:12;;;;;;;0.40;0.40;;;10.70;95.80;;;;;;5117160;28;20197;-82
2021/12/28 08:51:39;;;;;;;1.20;0.50;;;10.60;96.90;;;;;;5116816;28;20193;-82
2021/12/28 08:54:08;;;;;;;1.75;0.35;;;10.60;98.20;;;;;;5125021;22;20244;-82
2021/12/28 08:56:36;;;;;;;0.45;0.45;;;10.60;99.10;;;;;;5101350;28;20198;-83
2021/12/28 08:59:03;;;;;;;0.40;0.40;;;10.50;99.90;;;;;;5100730;28;20206;-81
2021/12/28 09:01:31;;;;;;;3.00;1.20;;;10.60;99.90;;;;;;5101269;28;20244;-82
2021/12/28 09:03:58;;;;;;;0.50;0.50;;;10.50;99.90;;;;;;5123039;28;20602;-82
2021/12/28 09:06:25;;;;;;;0.50;0.50;;;10.50;99.90;;;;;;5120143;28;20693;-82
2021/12/28 09:08:51;;;;;;;0.68;0.60;;;10.50;99.90;;;;;;5125894;28;20204;-82
2021/12/28 09:11:19;;;;;;;0.47;0.47;;;10.60;99.90;;;;;;5133261;28;20382;-84
2021/12/28 09:13:47;;;;;;;0.35;0.35;;;10.60;99.90;;;;;;5124974;28;20263;-81
2021/12/28 09:16:14;;;;;;;0.40;0.40;;;10.60;99.90;;;;;;5121398;28;20204;-85
2021/12/28 09:18:42;;;;;;;0.40;0.40;;;10.60;99.90;;;;;;5121708;28;20257;-84
2021/12/28 09:21:09;;;;;;;1.35;0.50;;;10.60;99.90;;;;;;5121992;28;20257;-82
2021/12/28 09:23:37;;;;;;;0.40;0.30;;;10.70;99.90;;;;;;5120691;28;20231;-82
2021/12/28 09:26:04;;;;;;;0.50;0.50;;;10.70;99.90;;;;;;5120573;28;20204;-82
2021/12/28 09:28:31;;;;;;;1.48;0.40;;;10.80;99.30;;;;;;5125752;28;20215;-82
2021/12/28 09:31:00;;;;;;;0.65;0.50;;;11.00;97.60;;;;;;5130917;28;20212;-82
2021/12/28 09:33:27;;;;;;;1.13;0.60;;;11.10;95.90;;;;;;5121668;28;20278;-83
2021/12/28 09:35:54;;;;;;;0.63;0.57;;;11.20;94.90;;;;;;5123407;28;20204;-82
2021/12/28 09:38:23;;;;;;;0.50;0.50;;;11.20;94.20;;;;;;5126162;28;20246;-81
2021/12/28 09:40:51;;;;;;;0.68;0.40;;;11.20;94.30;;;;;;5125045;28;20216;-81
2021/12/28 09:43:19;;;;;;;0.65;0.50;;;11.20;94.10;;;;;;5125667;28;20255;-83
2021/12/28 09:45:46;;;;;;;0.70;0.70;;;11.20;93.70;;;;;;5126570;28;20208;-80
2021/12/28 09:48:15;;;;;;;0.50;0.40;;;11.20;93.60;;;;;;5131423;28;20236;-81
2021/12/28 09:50:42;;;;;;;0.85;0.57;;;11.30;93.20;;;;;;5130921;28;20264;-83
2021/12/28 09:53:11;;;;;;;0.80;0.50;;;11.40;92.80;;;;;;5132023;28;20212;-83
2021/12/28 09:55:38;;;;;;;4.13;0.40;;;11.40;91.90;;;;;;5134995;28;20288;-82
2021/12/28 09:58:06;;;;;;;0.75;0.60;;;11.50;91.90;;;;;;5135322;28;20204;-82
2021/12/28 10:00:33;;;;;;;1.20;0.40;;;11.50;92.00;;;;;;5136051;28;20200;-79
2021/12/28 10:03:00;;;;;;;0.63;0.38;;;11.50;92.90;;;;;;5137808;28;20212;-79
2021/12/28 10:05:29;;;;;;;0.68;0.60;;;11.40;93.60;;;;;;5138034;28;20201;-81
2021/12/28 10:07:58;;;;;;;0.30;0.30;;;11.40;93.70;;;;;;5138042;28;20240;-81
2021/12/28 10:10:26;;;;;;;0.32;0.32;;;11.50;94.10;;;;;;5137911;28;20188;-80
2021/12/28 10:12:56;;;;;;;0.50;0.50;;;11.40;94.80;;;;;;5136020;28;20249;-80
2021/12/28 10:15:26;;;;;;;1.20;0.57;;;11.30;95.50;;;;;;5133699;27;20208;-83
2021/12/28 10:17:54;;;;;;;0.65;0.65;;;11.30;96.70;;;;;;5132924;28;20207;-83
2021/12/28 10:20:25;;;;;;;0.60;0.60;;;11.30;97.80;;;;;;5128216;28;20223;-82
2021/12/28 10:22:58;;;;;;;1.27;0.75;;;11.40;98.60;;;;;;5122100;28;20220;-83
2021/12/28 10:25:27;;;;;;;0.45;0.45;;;11.30;98.90;;;;;;5128935;28;20298;-82
2021/12/28 10:27:57;;;;;;;0.60;0.40;;;11.30;99.90;;;;;;5134380;28;20642;-82
2021/12/28 10:30:27;;;;;;;3.45;0.70;;;11.30;99.90;;;;;;5128830;28;20325;-82
2021/12/28 10:32:56;;;;;;;0.60;0.60;;;11.20;99.90;;;;;;5125493;28;20295;-81
2021/12/28 10:35:26;;;;;;;0.47;0.40;;;11.10;99.90;;;;;;5122962;28;20215;-82
2021/12/28 10:37:58;;;;;;;0.57;0.57;;;11.10;99.90;;;;;;5121597;28;20208;-82
2021/12/28 10:40:29;;;;;;;0.55;0.50;;;11.00;99.90;;;;;;5122069;28;20207;-81
2021/12/28 10:43:03;;;;;;;0.63;0.60;;;11.00;99.90;;;;;;5124521;28;20212;-81
2021/12/28 10:45:36;;;;;;;0.60;0.60;;;11.00;99.90;;;;;;5123653;28;20273;-80
2021/12/28 10:48:07;;;;;;;0.40;0.40;;;11.00;99.90;;;;;;5124513;28;20238;-81
2021/12/28 10:50:38;;;;;;;0.93;0.55;;;11.00;99.90;;;;;;5130629;28;20208;-83
2021/12/28 10:53:19;;;;;;;0.40;0.40;;;11.00;99.90;;;;;;5133214;28;20234;-79
2021/12/28 10:55:49;;;;;;;0.47;0.47;;;11.00;99.90;;;;;;5122751;28;20209;-80
2021/12/28 10:58:31;;;;;;;0.60;0.50;;;11.00;99.90;;;;;;5123215;28;20276;-81
2021/12/28 11:01:04;;;;;;;0.82;0.57;;;11.10;99.90;;;;;;5120875;28;20250;-80
2021/12/28 11:03:34;;;;;;;1.30;1.00;;;11.10;99.90;;;;;;5118605;28;20220;-81
2021/12/28 11:06:17;;;;;;;0.70;0.70;;;11.00;99.90;;;;;;5119475;28;20188;-82
2021/12/28 11:08:47;;;;;;;0.88;0.85;;;11.00;99.90;;;;;;5119488;28;20570;-81
2021/12/28 11:11:16;;;;;;;0.60;0.60;;;11.00;99.90;;;;;;5118481;28;20215;-81
2021/12/28 11:13:43;;;;;;;0.82;0.60;;;11.00;99.90;;;;;;5118707;28;20251;-82
2021/12/28 11:16:12;;;;;;;0.60;0.60;;;11.10;99.90;;;;;;5119618;28;20595;-81
2021/12/28 11:18:41;;;;;;;0.85;0.80;;;11.20;99.90;;;;;;5119356;28;20275;-82
2021/12/28 11:21:17;;;;;;;0.75;0.75;;;11.20;99.90;;;;;;5122059;28;20196;-82
2021/12/28 11:23:47;;;;;;;0.90;0.70;;;11.20;99.90;;;;;;5129811;28;20224;-80
2021/12/28 11:26:19;;;;;;;1.42;0.93;;;11.20;99.90;;;;;;5128103;28;20215;-80
2021/12/28 11:28:58;;;;;;;1.30;0.50;;;11.20;99.90;;;;;;5127746;28;20216;-84
2021/12/28 11:31:28;;;;;;;1.48;0.77;;;11.30;99.90;;;;;;5132568;28;20216;-81
2021/12/28 11:34:06;;;;;;;0.82;0.63;;;11.40;99.90;;;;;;5130930;27;20234;-81
2021/12/28 11:36:38;;;;;;;0.60;0.60;;;11.50;99.90;;;;;;5127936;28;20250;-85
2021/12/28 11:39:09;;;;;;;0.52;0.52;;;11.60;99.90;;;;;;5136900;28;20365;-81
2021/12/28 11:41:36;;;;;;;1.50;1.10;;;11.70;99.90;;;;;;5141050;28;20214;-86
2021/12/28 11:44:04;;;;;;;0.65;0.50;;;11.90;99.00;;;;;;5141310;28;20218;-87
2021/12/28 11:46:32;;;;;;;0.85;0.68;;;11.90;96.50;;;;;;5138513;28;20200;-83
2021/12/28 11:48:59;;;;;;;1.08;0.70;;;12.00;95.50;;;;;;5128777;28;20311;-82
2021/12/28 11:51:27;;;;;;;0.60;0.60;;;12.10;94.00;;;;;;5126026;28;20258;-82
2021/12/28 11:53:56;;;;;;;0.55;0.55;;;12.30;93.10;;;;;;5132965;28;20275;-82
2021/12/28 11:56:28;;;;;;;0.70;0.57;;;12.40;91.10;;;;;;5132849;28;20285;-81
2021/12/28 11:59:02;;;;;;;0.60;0.60;;;12.50;90.40;;;;;;5134082;28;20222;-82
2021/12/28 12:01:41;;;;;;;0.40;0.40;;;12.60;90.00;;;;;;5131179;28;20681;-81
2021/12/28 12:04:57;;;;;;;1.08;0.57;;;12.50;90.00;;;;;;5130830;28;20385;-82
2021/12/28 12:07:30;;;;;;;0.65;0.50;;;12.40;90.40;;;;;;5133343;28;20221;-82
2021/12/28 12:10:30;;;;;;;0.73;0.65;;;12.20;92.20;;;;;;5128319;27;20234;-81
2021/12/28 12:13:16;;;;;;;1.55;0.60;;;12.20;94.00;;;;;;5127981;28;20232;-82
2021/12/28 12:15:46;;;;;;;1.58;0.60;;;12.10;95.60;;;;;;5130823;28;20211;-83
2021/12/28 12:18:16;;;;;;;0.60;0.60;;;12.00;97.50;;;;;;5134822;28;20219;-83
2021/12/28 12:20:49;;;;;;;0.70;0.70;;;11.90;99.20;;;;;;5138653;28;20189;-83
2021/12/28 12:23:22;;;;;;;0.50;0.50;;;11.80;99.90;;;;;;5131986;28;20287;-80
2021/12/28 12:26:10;;;;;;;0.85;0.82;;;11.70;99.90;;;;;;5130082;28;20587;-81
2021/12/28 12:28:48;;;;;;;0.80;0.70;;;11.60;99.90;;;;;;5127265;28;20727;-80
2021/12/28 12:31:31;;;;;;;1.05;0.70;;;11.50;99.90;;;;;;5126023;28;20283;-81
2021/12/28 12:33:59;;;;;;;0.85;0.85;;;11.50;99.90;;;;;;5132091;28;20216;-81
2021/12/28 12:36:40;;;;;;;2.05;1.00;;;11.50;99.90;;;;;;5127302;28;20192;-83
2021/12/28 12:39:09;;;;;;;1.65;0.85;;;11.40;99.90;;;;;;5127951;28;20196;-83
2021/12/28 12:41:47;;;;;;;1.50;0.80;;;11.40;99.90;;;;;;5129560;28;20235;-82
2021/12/28 12:44:19;;;;;;;1.35;0.90;;;11.40;99.90;;;;;;5125824;27;20228;-82
2021/12/28 12:46:47;;;;;;;2.13;0.80;;;11.40;99.90;;;;;;5128487;28;20224;-83
2021/12/28 12:49:28;;;;;;;1.65;0.80;;;11.40;99.90;;;;;;5132488;28;20315;-83
2021/12/28 12:52:01;;;;;;;1.42;0.90;;;11.40;99.90;;;;;;5124569;28;20211;-83
2021/12/28 12:54:31;;;;;;;1.88;0.60;;;11.40;99.90;;;;;;5124965;27;20205;-82
2021/12/28 12:57:04;;;;;;;0.70;0.70;;;11.40;99.90;;;;;;5125288;28;20200;-83
2021/12/28 12:59:43;;;;;;;1.48;1.00;;;11.40;99.90;;;;;;5126435;28;20236;-85
2021/12/28 13:02:13;;;;;;;1.45;0.80;;;11.40;99.90;;;;;;5138943;28;20200;-78